sensor_id;sensor_type;location;lat;lon;timestamp;pressure;altitude;pressure_sealevel;temperature;humidity
69971;BME280;57301;50.328;8.542;2023-04-09T00:01:06;99346.69;;;5.96;84.01
69971;BME280;57301;50.328;8.542;2023-04-09T00:03:33;99344.06;;;5.96;83.90
69971;BME280;57301;50.328;8.542;2023-04-09T00:06:00;99344.34;;;5.91;83.81
69971;BME280;57301;50.328;8.542;2023-04-09T00:08:26;99341.03;;;5.87;83.38
69971;BME280;57301;50.328;8.542;2023-04-09T00:10:53;99350.44;;;5.79;83.95
69971;BME280;57301;50.328;8.542;2023-04-09T00:13:20;99342.25;;;5.69;84.37
69971;BME280;57301;50.328;8.542;2023-04-09T00:16:03;99340.97;;;5.62;84.48
69971;BME280;57301;50.328;8.542;2023-04-09T00:18:30;99338.44;;;5.60;84.38
69971;BME280;57301;50.328;8.542;2023-04-09T00:20:56;99340.88;;;5.63;85.01
69971;BME280;57301;50.328;8.542;2023-04-09T00:23:23;99345.84;;;5.68;84.64
69971;BME280;57301;50.328;8.542;2023-04-09T00:25:49;99340.88;;;5.63;85.19
69971;BME280;57301;50.328;8.542;2023-04-09T00:28:16;99345.81;;;5.55;85.68
69971;BME280;57301;50.328;8.542;2023-04-09T00:30:42;99338.59;;;5.45;86.10
69971;BME280;57301;50.328;8.542;2023-04-09T00:33:09;99337.63;;;5.46;85.27
69971;BME280;57301;50.328;8.542;2023-04-09T00:35:35;99333.09;;;5.48;85.08
69971;BME280;57301;50.328;8.542;2023-04-09T00:38:02;99325.06;;;5.49;85.96
69971;BME280;57301;50.328;8.542;2023-04-09T00:40:28;99329.25;;;5.39;85.56
69971;BME280;57301;50.328;8.542;2023-04-09T00:42:55;99329.19;;;5.41;85.64
69971;BME280;57301;50.328;8.542;2023-04-09T00:45:22;99326.97;;;5.20;87.01
69971;BME280;57301;50.328;8.542;2023-04-09T00:47:49;99320.66;;;5.23;86.73
69971;BME280;57301;50.328;8.542;2023-04-09T00:50:15;99325.03;;;5.09;87.73
69971;BME280;57301;50.328;8.542;2023-04-09T00:52:42;99319.94;;;5.06;87.66
69971;BME280;57301;50.328;8.542;2023-04-09T00:55:09;99318.13;;;5.07;87.49
69971;BME280;57301;50.328;8.542;2023-04-09T00:57:35;99321.00;;;5.04;87.85
69971;BME280;57301;50.328;8.542;2023-04-09T01:00:03;99315.88;;;5.01;87.71
69971;BME280;57301;50.328;8.542;2023-04-09T01:02:30;99323.00;;;4.86;88.07
69971;BME280;57301;50.328;8.542;2023-04-09T01:04:57;99325.91;;;4.96;87.63
69971;BME280;57301;50.328;8.542;2023-04-09T01:09:53;99328.84;;;4.91;87.99
69971;BME280;57301;50.328;8.542;2023-04-09T01:12:35;99325.06;;;4.95;87.70
69971;BME280;57301;50.328;8.542;2023-04-09T01:15:14;99326.09;;;4.93;87.65
69971;BME280;57301;50.328;8.542;2023-04-09T01:20:55;99323.75;;;4.88;87.57
69971;BME280;57301;50.328;8.542;2023-04-09T01:23:34;99321.31;;;4.85;88.00
69971;BME280;57301;50.328;8.542;2023-04-09T01:28:52;99320.53;;;4.83;86.71
69971;BME280;57301;50.328;8.542;2023-04-09T01:31:31;99322.88;;;4.61;87.71
69971;BME280;57301;50.328;8.542;2023-04-09T01:33:59;99319.06;;;4.65;88.27
69971;BME280;57301;50.328;8.542;2023-04-09T01:36:27;99318.69;;;4.71;87.76
69971;BME280;57301;50.328;8.542;2023-04-09T01:38:59;99324.25;;;4.80;87.12
69971;BME280;57301;50.328;8.542;2023-04-09T01:41:26;99319.91;;;4.79;87.49
69971;BME280;57301;50.328;8.542;2023-04-09T01:43:53;99318.69;;;4.85;86.37
69971;BME280;57301;50.328;8.542;2023-04-09T01:46:21;99325.53;;;4.88;86.81
69971;BME280;57301;50.328;8.542;2023-04-09T01:48:48;99327.63;;;4.82;86.39
69971;BME280;57301;50.328;8.542;2023-04-09T01:51:15;99327.00;;;4.79;86.54
69971;BME280;57301;50.328;8.542;2023-04-09T01:53:42;99331.72;;;4.74;87.18
69971;BME280;57301;50.328;8.542;2023-04-09T01:56:09;99327.66;;;4.68;86.79
69971;BME280;57301;50.328;8.542;2023-04-09T01:58:35;99325.50;;;4.61;87.54
69971;BME280;57301;50.328;8.542;2023-04-09T02:01:06;99327.84;;;4.65;87.51
69971;BME280;57301;50.328;8.542;2023-04-09T02:03:41;99322.84;;;4.75;87.40
69971;BME280;57301;50.328;8.542;2023-04-09T02:08:46;99329.53;;;4.80;87.16
69971;BME280;57301;50.328;8.542;2023-04-09T02:11:14;99330.28;;;4.82;87.40
69971;BME280;57301;50.328;8.542;2023-04-09T02:13:42;99330.94;;;4.86;86.76
69971;BME280;57301;50.328;8.542;2023-04-09T02:16:10;99329.41;;;4.82;86.29
69971;BME280;57301;50.328;8.542;2023-04-09T02:18:39;99334.53;;;4.71;87.17
69971;BME280;57301;50.328;8.542;2023-04-09T02:21:06;99334.63;;;4.69;86.80
69971;BME280;57301;50.328;8.542;2023-04-09T02:23:32;99329.53;;;4.66;87.88
69971;BME280;57301;50.328;8.542;2023-04-09T02:26:00;99330.56;;;4.64;87.92
69971;BME280;57301;50.328;8.542;2023-04-09T02:28:26;99329.91;;;4.60;88.27
69971;BME280;57301;50.328;8.542;2023-04-09T02:30:53;99331.69;;;4.59;88.19
69971;BME280;57301;50.328;8.542;2023-04-09T02:33:19;99332.16;;;4.66;88.46
69971;BME280;57301;50.328;8.542;2023-04-09T02:35:46;99334.91;;;4.65;88.10
69971;BME280;57301;50.328;8.542;2023-04-09T02:38:13;99330.69;;;4.62;87.71
69971;BME280;57301;50.328;8.542;2023-04-09T02:40:41;99333.13;;;4.65;88.08
69971;BME280;57301;50.328;8.542;2023-04-09T02:43:08;99332.66;;;4.58;87.45
69971;BME280;57301;50.328;8.542;2023-04-09T02:45:35;99332.09;;;4.68;87.66
69971;BME280;57301;50.328;8.542;2023-04-09T02:48:01;99326.50;;;4.72;87.34
69971;BME280;57301;50.328;8.542;2023-04-09T02:50:28;99336.78;;;4.77;88.05
69971;BME280;57301;50.328;8.542;2023-04-09T02:52:54;99327.28;;;4.74;87.16
69971;BME280;57301;50.328;8.542;2023-04-09T02:55:21;99333.28;;;4.76;86.94
69971;BME280;57301;50.328;8.542;2023-04-09T02:57:48;99324.91;;;4.70;88.10
69971;BME280;57301;50.328;8.542;2023-04-09T03:00:14;99329.06;;;4.74;87.49
69971;BME280;57301;50.328;8.542;2023-04-09T03:02:41;99325.59;;;4.73;87.25
69971;BME280;57301;50.328;8.542;2023-04-09T03:05:08;99333.22;;;4.64;87.41
69971;BME280;57301;50.328;8.542;2023-04-09T03:07:34;99319.44;;;4.58;87.86
69971;BME280;57301;50.328;8.542;2023-04-09T03:10:01;99318.59;;;4.58;87.59
69971;BME280;57301;50.328;8.542;2023-04-09T03:12:27;99314.44;;;4.68;87.25
69971;BME280;57301;50.328;8.542;2023-04-09T03:14:54;99304.75;;;4.54;88.36
69971;BME280;57301;50.328;8.542;2023-04-09T03:17:20;99312.66;;;4.69;87.78
69971;BME280;57301;50.328;8.542;2023-04-09T03:19:47;99310.56;;;4.74;87.78
69971;BME280;57301;50.328;8.542;2023-04-09T03:22:13;99308.97;;;4.71;87.82
69971;BME280;57301;50.328;8.542;2023-04-09T03:24:40;99310.19;;;4.80;87.64
69971;BME280;57301;50.328;8.542;2023-04-09T03:27:06;99310.38;;;4.77;87.37
69971;BME280;57301;50.328;8.542;2023-04-09T03:29:33;99297.03;;;4.78;87.21
69971;BME280;57301;50.328;8.542;2023-04-09T03:31:59;99310.19;;;4.80;87.58
69971;BME280;57301;50.328;8.542;2023-04-09T03:34:26;99307.53;;;4.80;87.12
69971;BME280;57301;50.328;8.542;2023-04-09T03:36:52;99310.56;;;4.74;87.70
69971;BME280;57301;50.328;8.542;2023-04-09T03:39:19;99306.03;;;4.76;87.80
69971;BME280;57301;50.328;8.542;2023-04-09T03:41:45;99303.28;;;4.77;87.72
69971;BME280;57301;50.328;8.542;2023-04-09T03:44:12;99299.63;;;4.80;87.87
69971;BME280;57301;50.328;8.542;2023-04-09T03:46:38;99295.19;;;4.80;86.96
69971;BME280;57301;50.328;8.542;2023-04-09T03:49:05;99297.72;;;4.82;87.76
69971;BME280;57301;50.328;8.542;2023-04-09T03:51:31;99301.03;;;4.85;87.10
69971;BME280;57301;50.328;8.542;2023-04-09T03:53:58;99294.34;;;4.80;87.19
69971;BME280;57301;50.328;8.542;2023-04-09T03:56:24;99288.19;;;4.79;87.56
69971;BME280;57301;50.328;8.542;2023-04-09T03:58:51;99292.63;;;4.79;87.33
69971;BME280;57301;50.328;8.542;2023-04-09T04:01:18;99303.28;;;4.77;87.46
69971;BME280;57301;50.328;8.542;2023-04-09T04:03:44;99299.06;;;4.75;88.11
69971;BME280;57301;50.328;8.542;2023-04-09T04:06:11;99296.03;;;4.81;87.08
69971;BME280;57301;50.328;8.542;2023-04-09T04:08:38;99299.22;;;4.72;87.90
69971;BME280;57301;50.328;8.542;2023-04-09T04:11:04;99294.78;;;4.72;87.56
69971;BME280;57301;50.328;8.542;2023-04-09T04:13:31;99290.06;;;4.77;86.95
69971;BME280;57301;50.328;8.542;2023-04-09T04:15:57;99298.09;;;4.76;88.07
69971;BME280;57301;50.328;8.542;2023-04-09T04:18:24;99289.91;;;4.66;88.39
69971;BME280;57301;50.328;8.542;2023-04-09T04:20:50;99303.28;;;4.77;88.04
69971;BME280;57301;50.328;8.542;2023-04-09T04:23:17;99300.19;;;4.71;88.18
69971;BME280;57301;50.328;8.542;2023-04-09T04:25:43;99292.63;;;4.79;87.79
69971;BME280;57301;50.328;8.542;2023-04-09T04:28:10;99297.16;;;4.77;87.16
69971;BME280;57301;50.328;8.542;2023-04-09T04:30:36;99290.19;;;4.76;87.40
69971;BME280;57301;50.328;8.542;2023-04-09T04:33:03;99295.28;;;4.79;87.99
69971;BME280;57301;50.328;8.542;2023-04-09T04:35:29;99301.31;;;4.81;87.55
69971;BME280;57301;50.328;8.542;2023-04-09T04:37:56;99297.81;;;4.80;88.00
69971;BME280;57301;50.328;8.542;2023-04-09T04:40:22;99300.47;;;4.80;87.90
69971;BME280;57301;50.328;8.542;2023-04-09T04:42:49;99299.63;;;4.80;88.41
69971;BME280;57301;50.328;8.542;2023-04-09T04:45:15;99307.44;;;4.81;88.14
69971;BME280;57301;50.328;8.542;2023-04-09T04:47:42;99313.47;;;4.83;88.25
69971;BME280;57301;50.328;8.542;2023-04-09T04:50:09;99314.31;;;4.84;88.33
69971;BME280;57301;50.328;8.542;2023-04-09T04:52:35;99308.63;;;4.90;87.71
69971;BME280;57301;50.328;8.542;2023-04-09T04:55:02;99309.69;;;4.88;87.76
69971;BME280;57301;50.328;8.542;2023-04-09T04:57:29;99313.91;;;4.90;87.86
69971;BME280;57301;50.328;8.542;2023-04-09T04:59:55;99313.75;;;4.93;88.25
69971;BME280;57301;50.328;8.542;2023-04-09T05:02:22;99308.56;;;4.92;88.11
69971;BME280;57301;50.328;8.542;2023-04-09T05:04:48;99320.72;;;4.94;88.48
69971;BME280;57301;50.328;8.542;2023-04-09T05:07:15;99308.16;;;4.98;87.55
69971;BME280;57301;50.328;8.542;2023-04-09T05:09:41;99309.97;;;4.97;87.36
69971;BME280;57301;50.328;8.542;2023-04-09T05:12:09;99304.97;;;4.93;88.13
69971;BME280;57301;50.328;8.542;2023-04-09T05:14:36;99305.69;;;4.95;88.29
69971;BME280;57301;50.328;8.542;2023-04-09T05:17:02;99317.00;;;4.97;88.81
69971;BME280;57301;50.328;8.542;2023-04-09T05:19:29;99311.44;;;5.01;87.82
69971;BME280;57301;50.328;8.542;2023-04-09T05:21:59;99316.72;;;5.16;87.05
69971;BME280;57301;50.328;8.542;2023-04-09T05:24:25;99313.28;;;5.13;87.24
69971;BME280;57301;50.328;8.542;2023-04-09T05:26:52;99316.88;;;5.12;87.15
69971;BME280;57301;50.328;8.542;2023-04-09T05:29:18;99317.41;;;5.05;88.14
69971;BME280;57301;50.328;8.542;2023-04-09T05:31:45;99323.88;;;5.13;87.48
69971;BME280;57301;50.328;8.542;2023-04-09T05:34:11;99321.28;;;5.26;86.93
69971;BME280;57301;50.328;8.542;2023-04-09T05:36:38;99323.53;;;5.32;86.99
69971;BME280;57301;50.328;8.542;2023-04-09T05:39:04;99319.28;;;5.30;86.83
69971;BME280;57301;50.328;8.542;2023-04-09T05:41:30;99323.00;;;5.40;86.78
69971;BME280;57301;50.328;8.542;2023-04-09T05:43:58;99328.44;;;5.51;85.52
69971;BME280;57301;50.328;8.542;2023-04-09T05:46:26;99318.31;;;5.58;84.69
69971;BME280;57301;50.328;8.542;2023-04-09T05:48:54;99322.44;;;5.62;84.44
69971;BME280;57301;50.328;8.542;2023-04-09T05:51:20;99327.59;;;5.78;85.01
69971;BME280;57301;50.328;8.542;2023-04-09T05:53:47;99328.31;;;5.80;85.01
69971;BME280;57301;50.328;8.542;2023-04-09T05:56:14;99328.09;;;5.83;84.83
69971;BME280;57301;50.328;8.542;2023-04-09T05:58:41;99325.84;;;5.91;84.66
69971;BME280;57301;50.328;8.542;2023-04-09T06:01:07;99329.97;;;6.08;83.79
69971;BME280;57301;50.328;8.542;2023-04-09T06:03:34;99323.94;;;6.06;82.42
69971;BME280;57301;50.328;8.542;2023-04-09T06:06:00;99330.41;;;6.14;82.75
69971;BME280;57301;50.328;8.542;2023-04-09T06:08:27;99329.03;;;6.22;82.96
69971;BME280;57301;50.328;8.542;2023-04-09T06:10:53;99327.66;;;6.29;82.45
69971;BME280;57301;50.328;8.542;2023-04-09T06:13:21;99324.78;;;6.44;82.09
69971;BME280;57301;50.328;8.542;2023-04-09T06:15:47;99323.81;;;6.58;81.17
69971;BME280;57301;50.328;8.542;2023-04-09T06:18:14;99323.38;;;6.77;80.55
69971;BME280;57301;50.328;8.542;2023-04-09T06:20:40;99324.53;;;7.10;79.45
69971;BME280;57301;50.328;8.542;2023-04-09T06:23:07;99321.13;;;7.44;78.32
69971;BME280;57301;50.328;8.542;2023-04-09T06:25:34;99321.16;;;7.56;76.59
69971;BME280;57301;50.328;8.542;2023-04-09T06:28:01;99322.31;;;7.75;75.35
69971;BME280;57301;50.328;8.542;2023-04-09T06:30:28;99328.78;;;7.95;74.04
69971;BME280;57301;50.328;8.542;2023-04-09T06:32:56;99318.69;;;8.12;74.14
69971;BME280;57301;50.328;8.542;2023-04-09T06:35:22;99321.47;;;8.32;73.40
69971;BME280;57301;50.328;8.542;2023-04-09T06:37:49;99323.94;;;8.69;72.42
69971;BME280;57301;50.328;8.542;2023-04-09T06:40:15;99333.16;;;9.31;70.71
69971;BME280;57301;50.328;8.542;2023-04-09T06:42:42;99324.63;;;10.22;67.69
69971;BME280;57301;50.328;8.542;2023-04-09T06:45:08;99324.34;;;10.67;64.28
69971;BME280;57301;50.328;8.542;2023-04-09T06:47:35;99323.88;;;11.62;63.10
69971;BME280;57301;50.328;8.542;2023-04-09T06:50:02;99324.88;;;11.99;60.34
69971;BME280;57301;50.328;8.542;2023-04-09T06:52:28;99329.78;;;12.14;58.14
69971;BME280;57301;50.328;8.542;2023-04-09T06:54:55;99327.38;;;12.30;57.95
69971;BME280;57301;50.328;8.542;2023-04-09T06:57:22;99328.47;;;12.27;57.13
69971;BME280;57301;50.328;8.542;2023-04-09T06:59:48;99322.25;;;12.46;55.63
69971;BME280;57301;50.328;8.542;2023-04-09T07:02:14;99325.00;;;12.64;55.63
69971;BME280;57301;50.328;8.542;2023-04-09T07:04:42;99330.06;;;12.67;55.87
69971;BME280;57301;50.328;8.542;2023-04-09T07:07:08;99335.56;;;12.66;55.17
69971;BME280;57301;50.328;8.542;2023-04-09T07:09:35;99344.22;;;13.14;55.87
69971;BME280;57301;50.328;8.542;2023-04-09T07:12:02;99333.63;;;14.30;52.91
69971;BME280;57301;50.328;8.542;2023-04-09T07:14:28;99329.81;;;14.58;51.28
69971;BME280;57301;50.328;8.542;2023-04-09T07:16:55;99340.81;;;14.29;51.78
69971;BME280;57301;50.328;8.542;2023-04-09T07:19:21;99343.19;;;13.53;53.37
69971;BME280;57301;50.328;8.542;2023-04-09T07:21:48;99336.66;;;13.55;54.08
69971;BME280;57301;50.328;8.542;2023-04-09T07:24:14;99336.63;;;13.37;54.60
69971;BME280;57301;50.328;8.542;2023-04-09T07:26:41;99332.91;;;13.66;54.92
69971;BME280;57301;50.328;8.542;2023-04-09T07:29:07;99329.00;;;13.78;53.40
69971;BME280;57301;50.328;8.542;2023-04-09T07:31:34;99332.38;;;13.62;53.89
69971;BME280;57301;50.328;8.542;2023-04-09T07:34:01;99333.59;;;13.50;54.30
69971;BME280;57301;50.328;8.542;2023-04-09T07:36:28;99342.38;;;13.42;54.50
69971;BME280;57301;50.328;8.542;2023-04-09T07:38:54;99334.78;;;13.38;54.42
69971;BME280;57301;50.328;8.542;2023-04-09T07:41:21;99330.91;;;13.32;55.43
69971;BME280;57301;50.328;8.542;2023-04-09T07:43:47;99331.28;;;13.37;55.03
69971;BME280;57301;50.328;8.542;2023-04-09T07:46:23;99328.97;;;13.25;54.41
69971;BME280;57301;50.328;8.542;2023-04-09T07:48:49;99331.03;;;13.03;55.14
69971;BME280;57301;50.328;8.542;2023-04-09T07:51:17;99335.41;;;13.04;56.70
69971;BME280;57301;50.328;8.542;2023-04-09T07:53:43;99339.84;;;13.13;55.60
69971;BME280;57301;50.328;8.542;2023-04-09T07:56:10;99337.50;;;13.56;55.43
69971;BME280;57301;50.328;8.542;2023-04-09T07:58:36;99342.25;;;13.80;54.32
69971;BME280;57301;50.328;8.542;2023-04-09T08:01:05;99339.41;;;13.99;52.23
69971;BME280;57301;50.328;8.542;2023-04-09T08:03:32;99339.56;;;13.97;52.83
69971;BME280;57301;50.328;8.542;2023-04-09T08:05:59;99339.66;;;13.70;51.88
69971;BME280;57301;50.328;8.542;2023-04-09T08:08:25;99353.44;;;13.93;51.73
69971;BME280;57301;50.328;8.542;2023-04-09T08:10:52;99337.84;;;14.50;53.15
69971;BME280;57301;50.328;8.542;2023-04-09T08:13:18;99345.25;;;15.24;49.89
69971;BME280;57301;50.328;8.542;2023-04-09T08:15:45;99328.59;;;16.12;50.84
69971;BME280;57301;50.328;8.542;2023-04-09T08:18:11;99343.22;;;17.14;49.85
69971;BME280;57301;50.328;8.542;2023-04-09T08:20:38;99336.88;;;17.69;47.25
69971;BME280;57301;50.328;8.542;2023-04-09T08:23:10;99347.09;;;18.05;47.16
69971;BME280;57301;50.328;8.542;2023-04-09T08:25:37;99339.53;;;18.00;42.85
69971;BME280;57301;50.328;8.542;2023-04-09T08:28:03;99341.34;;;18.08;44.41
69971;BME280;57301;50.328;8.542;2023-04-09T08:30:30;99333.88;;;17.64;42.87
69971;BME280;57301;50.328;8.542;2023-04-09T08:33:00;99345.34;;;17.89;42.62
69971;BME280;57301;50.328;8.542;2023-04-09T08:35:29;99350.03;;;15.55;44.19
69971;BME280;57301;50.328;8.542;2023-04-09T08:37:56;99352.94;;;15.19;45.45
69971;BME280;57301;50.328;8.542;2023-04-09T08:40:23;99353.72;;;14.69;46.11
69971;BME280;57301;50.328;8.542;2023-04-09T08:42:54;99354.50;;;14.18;49.51
69971;BME280;57301;50.328;8.542;2023-04-09T08:45:22;99355.56;;;15.03;46.00
69971;BME280;57301;50.328;8.542;2023-04-09T08:47:50;99342.38;;;14.84;47.47
69971;BME280;57301;50.328;8.542;2023-04-09T08:50:17;99362.00;;;15.18;46.35
69971;BME280;57301;50.328;8.542;2023-04-09T08:52:45;99362.47;;;14.10;48.40
69971;BME280;57301;50.328;8.542;2023-04-09T08:55:13;99365.00;;;14.11;48.03
69971;BME280;57301;50.328;8.542;2023-04-09T08:57:40;99356.50;;;13.44;49.21
69971;BME280;57301;50.328;8.542;2023-04-09T09:00:13;99361.97;;;13.15;50.46
69971;BME280;57301;50.328;8.542;2023-04-09T09:05:41;99353.31;;;13.04;51.68
69971;BME280;57301;50.328;8.542;2023-04-09T09:08:09;99363.06;;;13.32;51.84
69971;BME280;57301;50.328;8.542;2023-04-09T09:10:43;99358.16;;;13.18;52.78
69971;BME280;57301;50.328;8.542;2023-04-09T09:13:24;99350.06;;;14.78;47.67
69971;BME280;57301;50.328;8.542;2023-04-09T09:15:53;99354.09;;;14.74;47.05
69971;BME280;57301;50.328;8.542;2023-04-09T09:18:42;99360.41;;;13.68;49.81
69971;BME280;57301;50.328;8.542;2023-04-09T09:21:13;99354.09;;;14.74;46.75
69971;BME280;57301;50.328;8.542;2023-04-09T09:23:40;99362.09;;;15.43;46.58
69971;BME280;57301;50.328;8.542;2023-04-09T09:26:15;99354.66;;;15.87;43.91
69971;BME280;57301;50.328;8.542;2023-04-09T09:28:42;99350.56;;;16.81;41.87
69971;BME280;57301;50.328;8.542;2023-04-09T09:31:10;99354.16;;;16.32;43.88
69971;BME280;57301;50.328;8.542;2023-04-09T09:33:37;99352.47;;;15.74;44.35
69971;BME280;57301;50.328;8.542;2023-04-09T09:36:04;99352.19;;;15.01;45.17
69971;BME280;57301;50.328;8.542;2023-04-09T09:38:31;99362.81;;;15.61;45.36
69971;BME280;57301;50.328;8.542;2023-04-09T09:40:57;99351.28;;;16.50;44.53
69971;BME280;57301;50.328;8.542;2023-04-09T09:43:24;99343.34;;;16.65;42.78
69971;BME280;57301;50.328;8.542;2023-04-09T09:45:51;99355.84;;;16.42;44.14
69971;BME280;57301;50.328;8.542;2023-04-09T09:48:18;99347.44;;;16.20;43.07
69971;BME280;57301;50.328;8.542;2023-04-09T09:53:26;99353.31;;;15.91;42.35
69971;BME280;57301;50.328;8.542;2023-04-09T09:55:56;99349.44;;;15.94;42.91
69971;BME280;57301;50.328;8.542;2023-04-09T09:58:31;99355.47;;;14.35;46.70
69971;BME280;57301;50.328;8.542;2023-04-09T10:01:09;99355.91;;;13.13;47.67
69971;BME280;57301;50.328;8.542;2023-04-09T10:03:39;99351.38;;;13.87;48.59
69971;BME280;57301;50.328;8.542;2023-04-09T10:06:05;99350.06;;;14.09;49.06
69971;BME280;57301;50.328;8.542;2023-04-09T10:08:33;99357.38;;;13.08;50.20
69971;BME280;57301;50.328;8.542;2023-04-09T10:11:01;99349.69;;;14.04;48.69
69971;BME280;57301;50.328;8.542;2023-04-09T10:13:33;99344.38;;;14.82;47.93
69971;BME280;57301;50.328;8.542;2023-04-09T10:16:00;99345.66;;;15.03;47.14
69971;BME280;57301;50.328;8.542;2023-04-09T10:18:29;99347.75;;;14.84;47.37
69971;BME280;57301;50.328;8.542;2023-04-09T10:23:50;99348.88;;;13.22;51.04
69971;BME280;57301;50.328;8.542;2023-04-09T10:26:18;99340.00;;;12.47;50.42
69971;BME280;57301;50.328;8.542;2023-04-09T10:28:45;99344.44;;;13.03;49.69
69971;BME280;57301;50.328;8.542;2023-04-09T10:31:12;99340.19;;;12.73;49.73
69971;BME280;57301;50.328;8.542;2023-04-09T10:33:42;99339.75;;;12.31;49.17
69971;BME280;57301;50.328;8.542;2023-04-09T10:36:10;99337.00;;;12.87;49.56
69971;BME280;57301;50.328;8.542;2023-04-09T10:38:44;99327.97;;;12.98;50.14
69971;BME280;57301;50.328;8.542;2023-04-09T10:41:16;99340.75;;;13.04;51.26
69971;BME280;57301;50.328;8.542;2023-04-09T10:43:47;99335.88;;;13.17;48.74
69971;BME280;57301;50.328;8.542;2023-04-09T10:46:33;99330.06;;;14.03;47.39
69971;BME280;57301;50.328;8.542;2023-04-09T10:49:22;99324.00;;;15.47;45.46
69971;BME280;57301;50.328;8.542;2023-04-09T10:52:00;99311.69;;;15.37;44.51
69971;BME280;57301;50.328;8.542;2023-04-09T10:57:09;99315.09;;;16.53;42.31
69971;BME280;57301;50.328;8.542;2023-04-09T10:59:38;99325.88;;;15.04;42.01
69971;BME280;57301;50.328;8.542;2023-04-09T11:02:58;99320.47;;;14.62;43.10
69971;BME280;57301;50.328;8.542;2023-04-09T11:07:43;99327.53;;;14.45;46.23
69971;BME280;57301;50.328;8.542;2023-04-09T11:10:11;99328.19;;;13.78;47.29
69971;BME280;57301;50.328;8.542;2023-04-09T11:12:37;99326.94;;;13.90;45.88
69971;BME280;57301;50.328;8.542;2023-04-09T11:15:04;99319.13;;;13.61;45.60
69971;BME280;57301;50.328;8.542;2023-04-09T11:17:35;99326.34;;;13.60;45.86
69971;BME280;57301;50.328;8.542;2023-04-09T11:20:02;99331.25;;;13.65;44.18
69971;BME280;57301;50.328;8.542;2023-04-09T11:22:29;99327.25;;;13.51;44.23
69971;BME280;57301;50.328;8.542;2023-04-09T11:24:55;99330.22;;;14.02;44.75
69971;BME280;57301;50.328;8.542;2023-04-09T11:27:22;99326.16;;;13.44;45.58
69971;BME280;57301;50.328;8.542;2023-04-09T11:29:54;99329.31;;;13.39;47.73
69971;BME280;57301;50.328;8.542;2023-04-09T11:32:20;99323.84;;;13.31;47.35
69971;BME280;57301;50.328;8.542;2023-04-09T11:34:47;99311.19;;;13.69;44.23
69971;BME280;57301;50.328;8.542;2023-04-09T11:37:14;99312.50;;;14.52;42.95
69971;BME280;57301;50.328;8.542;2023-04-09T11:39:45;99310.28;;;14.48;43.41
69971;BME280;57301;50.328;8.542;2023-04-09T11:42:14;99306.53;;;14.67;43.46
69971;BME280;57301;50.328;8.542;2023-04-09T11:44:43;99316.16;;;14.77;42.77
69971;BME280;57301;50.328;8.542;2023-04-09T11:47:12;99318.75;;;13.91;45.13
69971;BME280;57301;50.328;8.542;2023-04-09T11:49:40;99319.44;;;13.93;43.50
69971;BME280;57301;50.328;8.542;2023-04-09T11:52:06;99317.41;;;13.24;44.24
69971;BME280;57301;50.328;8.542;2023-04-09T11:54:33;99310.38;;;13.23;45.11
69971;BME280;57301;50.328;8.542;2023-04-09T11:57:02;99308.84;;;13.56;44.37
69971;BME280;57301;50.328;8.542;2023-04-09T11:59:29;99309.97;;;13.63;44.59
69971;BME280;57301;50.328;8.542;2023-04-09T12:01:59;99316.63;;;13.59;45.90
69971;BME280;57301;50.328;8.542;2023-04-09T12:04:26;99317.41;;;13.24;45.31
69971;BME280;57301;50.328;8.542;2023-04-09T12:06:56;99315.91;;;12.84;44.43
69971;BME280;57301;50.328;8.542;2023-04-09T12:09:24;99313.38;;;13.10;45.30
69971;BME280;57301;50.328;8.542;2023-04-09T12:11:51;99307.06;;;12.74;44.27
69971;BME280;57301;50.328;8.542;2023-04-09T12:14:20;99303.81;;;12.80;44.01
69971;BME280;57301;50.328;8.542;2023-04-09T12:16:50;99315.00;;;13.66;41.72
69971;BME280;57301;50.328;8.542;2023-04-09T12:19:17;99302.88;;;13.80;40.98
69971;BME280;57301;50.328;8.542;2023-04-09T12:24:16;99313.72;;;14.14;41.32
69971;BME280;57301;50.328;8.542;2023-04-09T12:26:47;99307.66;;;14.30;41.92
69971;BME280;57301;50.328;8.542;2023-04-09T12:29:15;99298.19;;;15.12;39.30
69971;BME280;57301;50.328;8.542;2023-04-09T12:31:42;99290.66;;;14.73;39.91
69971;BME280;57301;50.328;8.542;2023-04-09T12:34:09;99299.34;;;13.97;43.03
69971;BME280;57301;50.328;8.542;2023-04-09T12:36:37;99297.84;;;13.41;44.19
69971;BME280;57301;50.328;8.542;2023-04-09T12:39:04;99297.63;;;14.14;42.21
69971;BME280;57301;50.328;8.542;2023-04-09T12:41:31;99299.16;;;14.17;43.63
69971;BME280;57301;50.328;8.542;2023-04-09T12:43:57;99295.16;;;13.95;44.14
69971;BME280;57301;50.328;8.542;2023-04-09T12:46:23;99295.34;;;13.58;45.16
69971;BME280;57301;50.328;8.542;2023-04-09T12:48:51;99286.97;;;14.48;43.92
69971;BME280;57301;50.328;8.542;2023-04-09T12:51:17;99286.84;;;15.43;41.00
69971;BME280;57301;50.328;8.542;2023-04-09T12:53:45;99282.97;;;15.37;39.58
69971;BME280;57301;50.328;8.542;2023-04-09T12:56:12;99286.13;;;15.24;40.28
69971;BME280;57301;50.328;8.542;2023-04-09T12:58:38;99275.56;;;15.31;40.71
69971;BME280;57301;50.328;8.542;2023-04-09T13:01:05;99276.94;;;15.51;40.12
69971;BME280;57301;50.328;8.542;2023-04-09T13:03:32;99274.53;;;13.95;43.08
69971;BME280;57301;50.328;8.542;2023-04-09T13:05:58;99278.81;;;13.44;45.33
69971;BME280;57301;50.328;8.542;2023-04-09T13:08:25;99274.34;;;13.35;46.34
69971;BME280;57301;50.328;8.542;2023-04-09T13:10:51;99275.16;;;13.89;45.15
69971;BME280;57301;50.328;8.542;2023-04-09T13:13:18;99270.59;;;14.60;43.57
69971;BME280;57301;50.328;8.542;2023-04-09T13:15:44;99263.59;;;14.15;43.44
69971;BME280;57301;50.328;8.542;2023-04-09T13:18:11;99264.25;;;14.09;44.39
69971;BME280;57301;50.328;8.542;2023-04-09T13:20:39;99265.13;;;13.91;43.66
69971;BME280;57301;50.328;8.542;2023-04-09T13:23:05;99265.91;;;13.84;44.59
69971;BME280;57301;50.328;8.542;2023-04-09T13:25:32;99258.69;;;14.36;43.75
69971;BME280;57301;50.328;8.542;2023-04-09T13:27:58;99256.13;;;14.52;43.19
69971;BME280;57301;50.328;8.542;2023-04-09T13:30:25;99254.31;;;15.03;41.44
69971;BME280;57301;50.328;8.542;2023-04-09T13:32:51;99254.19;;;15.21;39.80
69971;BME280;57301;50.328;8.542;2023-04-09T13:35:18;99258.13;;;17.42;37.38